Terminal Aerodrome Forecast
Issued by NWS Jackson, MS

Home | Current Version | Previous Version | Text Only | Print | Product List | Glossary On
Versions: 1 2 3 4 5 6 7 8 9 10 11 12 13 14 15
498
FTUS44 KJAN 211903 RRA
TAFMEI
TAF
KMEI 211903Z 2119/2218 16006KT P6SM FEW050
     FM220500 19008KT 2SM TSRA BKN006CB BKN050
     FM220800 21008KT P6SM OVC015
     FM221400 20007KT P6SM OVC050=

USA.gov is the U.S. government's official web portal to all federal, state and local government web resources and services.